Time;durP1;ratioP1;P1;durP2;ratioP2;P2;SDS_P1;SDS_P2;PMS_P1;PMS_P2;Temp;Humidity;BMP_temperature;BMP_pressure;BME280_temperature;BME280_humidity;BME280_pressure;Samples;Min_cycle;Max_cycle;Signal;HPM_P1;HPM_P2
2023/05/09 00:01:49;;;;;;;40.25;23.55;;;16.10;99.90;;;;;;6272919;22;20617;-68
2023/05/09 00:04:15;;;;;;;42.20;25.98;;;16.10;99.90;;;;;;6270740;22;20027;-68
2023/05/09 00:06:41;;;;;;;46.92;26.88;;;16.10;99.90;;;;;;6272076;22;20090;-68
2023/05/09 00:09:07;;;;;;;46.22;27.83;;;16.00;99.90;;;;;;6272469;22;20023;-68
2023/05/09 00:11:32;;;;;;;46.90;27.35;;;16.10;99.90;;;;;;6244966;22;20399;-68
2023/05/09 00:13:58;;;;;;;47.03;27.20;;;16.10;99.90;;;;;;6272270;22;20019;-69
2023/05/09 00:16:25;;;;;;;46.83;27.20;;;16.10;99.90;;;;;;6270021;22;20024;-68
2023/05/09 00:18:50;;;;;;;50.78;29.85;;;16.10;99.90;;;;;;6244653;22;20081;-68
2023/05/09 00:21:16;;;;;;;53.83;29.55;;;16.00;99.90;;;;;;6271687;22;20020;-68
2023/05/09 00:23:42;;;;;;;51.30;28.90;;;16.10;99.90;;;;;;6272395;22;20047;-68
2023/05/09 00:26:09;;;;;;;54.67;31.33;;;16.10;99.90;;;;;;6271952;22;20536;-68
2023/05/09 00:28:34;;;;;;;60.35;30.25;;;16.00;99.90;;;;;;6271653;22;20038;-69
2023/05/09 00:31:00;;;;;;;69.78;32.28;;;16.10;99.90;;;;;;6244718;22;20359;-72
2023/05/09 00:33:26;;;;;;;67.10;32.03;;;16.00;99.90;;;;;;6244738;22;20047;-72
2023/05/09 00:35:54;;;;;;;63.60;30.65;;;16.10;99.90;;;;;;6271261;22;20019;-72
2023/05/09 00:38:22;;;;;;;68.13;32.10;;;16.10;99.90;;;;;;6271634;22;20111;-72
2023/05/09 00:40:48;;;;;;;68.15;33.22;;;16.00;99.90;;;;;;6272125;22;20015;-72
2023/05/09 00:43:15;;;;;;;62.50;30.58;;;16.00;99.90;;;;;;6271575;22;20382;-72
2023/05/09 00:45:42;;;;;;;66.43;31.23;;;16.00;99.90;;;;;;6244862;22;20070;-72
2023/05/09 00:48:08;;;;;;;72.45;32.38;;;16.00;99.90;;;;;;6272139;22;20077;-71
2023/05/09 00:50:34;;;;;;;66.63;32.35;;;16.00;99.90;;;;;;6271964;22;20012;-68
2023/05/09 00:53:00;;;;;;;70.75;32.15;;;16.00;99.90;;;;;;6272370;22;20100;-72
2023/05/09 00:55:26;;;;;;;67.15;30.73;;;16.00;99.90;;;;;;6244628;22;20106;-72
2023/05/09 00:57:52;;;;;;;68.43;32.08;;;16.00;99.90;;;;;;6271628;22;20489;-72
2023/05/09 01:00:18;;;;;;;66.78;30.27;;;15.90;99.90;;;;;;6272102;22;20043;-72
2023/05/09 01:02:49;;;;;;;67.20;31.17;;;15.90;99.90;;;;;;6271796;22;20015;-72
2023/05/09 01:05:15;;;;;;;62.63;30.57;;;15.90;99.90;;;;;;6271410;22;20069;-72
2023/05/09 01:07:51;;;;;;;71.07;32.85;;;15.90;99.90;;;;;;6272117;22;20336;-72
2023/05/09 01:10:48;;;;;;;66.63;30.33;;;15.80;99.90;;;;;;6272114;22;20019;-72
2023/05/09 01:13:30;;;;;;;68.70;31.02;;;15.90;99.90;;;;;;6242640;22;20023;-71
2023/05/09 01:16:09;;;;;;;73.05;32.22;;;15.80;99.90;;;;;;6271507;22;20028;-72
2023/05/09 01:19:00;;;;;;;70.03;31.02;;;15.80;99.90;;;;;;6271987;22;20027;-72
2023/05/09 01:21:28;;;;;;;70.05;31.67;;;15.80;99.90;;;;;;6269884;22;20024;-71
2023/05/09 01:24:26;;;;;;;62.42;30.88;;;15.80;99.90;;;;;;6271446;22;20023;-72
2023/05/09 01:27:29;;;;;;;67.60;30.40;;;15.80;99.90;;;;;;6272037;22;20082;-72
2023/05/09 01:29:56;;;;;;;60.67;28.42;;;15.70;99.90;;;;;;6218923;22;20498;-72
2023/05/09 01:32:26;;;;;;;63.83;30.42;;;15.70;99.90;;;;;;6244103;22;20447;-72
2023/05/09 01:34:54;;;;;;;64.22;31.20;;;15.70;99.90;;;;;;6271696;22;20054;-72
2023/05/09 01:37:29;;;;;;;62.90;30.55;;;15.70;99.90;;;;;;6244431;22;20568;-72
2023/05/09 01:39:59;;;;;;;62.47;29.65;;;15.70;99.90;;;;;;6271713;22;20026;-72
2023/05/09 01:42:29;;;;;;;69.35;31.30;;;15.60;99.90;;;;;;6273185;22;20016;-72
2023/05/09 01:44:57;;;;;;;71.93;31.75;;;15.60;99.90;;;;;;6274090;22;20092;-72
2023/05/09 01:47:23;;;;;;;65.50;32.97;;;15.60;99.90;;;;;;6273693;22;20019;-72
2023/05/09 01:49:51;;;;;;;68.47;34.45;;;15.60;99.90;;;;;;6273384;22;20022;-69
2023/05/09 01:52:18;;;;;;;76.43;34.08;;;15.60;99.90;;;;;;6273208;22;20444;-68
2023/05/09 01:54:46;;;;;;;69.82;33.50;;;15.60;99.90;;;;;;6245988;22;20030;-68
2023/05/09 01:57:13;;;;;;;72.40;33.30;;;15.60;99.90;;;;;;6273373;22;20019;-68
2023/05/09 01:59:42;;;;;;;70.78;32.95;;;15.60;99.90;;;;;;6273786;22;20015;-68
2023/05/09 02:02:09;;;;;;;72.38;32.60;;;15.60;99.90;;;;;;6273365;22;20022;-68
2023/05/09 02:04:35;;;;;;;72.25;32.22;;;15.60;99.90;;;;;;6273649;22;20053;-68
2023/05/09 02:07:03;;;;;;;74.75;33.17;;;15.60;99.90;;;;;;6273970;22;20024;-68
2023/05/09 02:09:29;;;;;;;65.20;32.55;;;15.60;99.90;;;;;;6273713;22;20020;-68
2023/05/09 02:11:55;;;;;;;57.90;29.77;;;15.60;99.90;;;;;;6273669;22;20447;-68
2023/05/09 02:14:21;;;;;;;60.65;31.90;;;15.60;99.90;;;;;;6273766;22;20020;-69
2023/05/09 02:16:47;;;;;;;56.97;30.35;;;15.60;99.90;;;;;;6273193;22;20409;-68
2023/05/09 02:19:12;;;;;;;57.22;29.35;;;15.60;99.90;;;;;;6273430;22;20383;-68
2023/05/09 02:21:38;;;;;;;56.70;30.25;;;15.60;99.90;;;;;;6273530;22;20019;-69
2023/05/09 02:24:04;;;;;;;49.78;29.10;;;15.60;99.90;;;;;;6273384;22;20455;-72
2023/05/09 02:26:30;;;;;;;53.45;30.00;;;15.60;99.90;;;;;;6273584;22;20019;-71
2023/05/09 02:28:57;;;;;;;49.47;27.33;;;15.50;99.90;;;;;;6273017;22;20318;-72
2023/05/09 02:31:26;;;;;;;46.75;28.17;;;15.50;99.90;;;;;;6273565;22;20026;-72
2023/05/09 02:33:53;;;;;;;45.13;27.08;;;15.40;99.90;;;;;;6271330;22;20023;-72
2023/05/09 02:36:19;;;;;;;42.22;25.00;;;15.50;99.90;;;;;;6273547;22;20019;-72
2023/05/09 02:38:45;;;;;;;40.08;25.70;;;15.50;99.90;;;;;;6273390;22;20401;-72
2023/05/09 02:41:15;;;;;;;38.28;24.02;;;15.50;99.90;;;;;;6273221;22;20019;-72
2023/05/09 02:43:42;;;;;;;40.80;24.00;;;15.40;99.90;;;;;;6273609;22;20027;-72
2023/05/09 02:46:09;;;;;;;40.70;23.65;;;15.40;99.90;;;;;;6245796;22;20020;-72
2023/05/09 02:48:35;;;;;;;34.47;22.75;;;15.40;99.90;;;;;;6273404;22;20317;-72
2023/05/09 02:51:01;;;;;;;35.70;25.23;;;15.30;99.90;;;;;;6245920;22;20019;-71
2023/05/09 02:53:27;;;;;;;36.42;23.83;;;15.30;99.90;;;;;;6245733;22;20023;-72
2023/05/09 02:55:53;;;;;;;37.95;23.70;;;15.20;99.90;;;;;;6245875;22;20329;-72
2023/05/09 02:58:19;;;;;;;32.47;21.65;;;15.20;99.90;;;;;;6245952;22;20016;-72
2023/05/09 03:00:45;;;;;;;34.13;22.50;;;15.20;99.90;;;;;;6273216;22;20024;-72
2023/05/09 03:03:11;;;;;;;30.73;20.38;;;15.20;99.90;;;;;;6245914;22;20023;-68
2023/05/09 03:05:37;;;;;;;32.28;20.05;;;15.10;99.90;;;;;;6273316;22;20019;-68
2023/05/09 03:08:02;;;;;;;27.00;17.90;;;15.10;99.90;;;;;;6273106;22;20020;-68
2023/05/09 03:10:28;;;;;;;26.10;17.92;;;15.10;99.90;;;;;;6245740;22;20078;-67
2023/05/09 03:12:54;;;;;;;24.10;16.17;;;15.10;99.90;;;;;;6272795;22;20444;-68
2023/05/09 03:15:20;;;;;;;24.45;16.80;;;15.10;99.90;;;;;;6272973;22;20055;-67
2023/05/09 03:17:46;;;;;;;25.80;16.55;;;15.10;99.90;;;;;;6272791;22;20043;-67
2023/05/09 03:20:12;;;;;;;22.85;15.85;;;15.10;99.90;;;;;;6272756;22;20026;-68
2023/05/09 03:22:38;;;;;;;24.38;16.60;;;15.00;99.90;;;;;;6272927;22;20447;-68
2023/05/09 03:25:05;;;;;;;22.05;15.43;;;15.10;99.90;;;;;;6273501;22;20012;-68
2023/05/09 03:27:31;;;;;;;24.20;15.45;;;15.00;99.90;;;;;;6273270;22;20019;-68
2023/05/09 03:29:56;;;;;;;21.90;15.57;;;15.00;99.90;;;;;;6272673;22;20055;-67
2023/05/09 03:32:22;;;;;;;21.63;15.15;;;15.00;99.90;;;;;;6273145;22;20020;-68
2023/05/09 03:34:48;;;;;;;23.08;15.80;;;15.00;99.90;;;;;;6272563;22;20054;-68
2023/05/09 03:37:14;;;;;;;26.48;15.52;;;14.90;99.90;;;;;;6272756;22;20018;-68
2023/05/09 03:39:39;;;;;;;25.17;16.25;;;14.90;99.90;;;;;;6271561;22;20087;-67
2023/05/09 03:42:05;;;;;;;22.50;15.07;;;14.90;99.90;;;;;;6272926;22;20023;-68
2023/05/09 03:44:31;;;;;;;21.17;15.65;;;14.90;99.90;;;;;;6272727;22;20023;-68
2023/05/09 03:46:56;;;;;;;22.77;14.63;;;14.90;99.90;;;;;;6272581;22;20028;-68
2023/05/09 03:49:22;;;;;;;22.25;14.43;;;14.90;99.90;;;;;;6272802;22;20069;-68
2023/05/09 03:51:48;;;;;;;20.90;14.10;;;14.80;99.90;;;;;;6272724;22;20031;-68
2023/05/09 03:54:13;;;;;;;22.27;14.98;;;14.80;99.90;;;;;;6272525;22;20012;-68
2023/05/09 03:56:39;;;;;;;21.92;14.10;;;14.80;99.90;;;;;;6272817;22;20018;-68
2023/05/09 03:59:08;;;;;;;20.23;14.38;;;14.80;99.90;;;;;;6272273;22;20019;-68
2023/05/09 04:01:33;;;;;;;20.92;13.90;;;14.70;99.90;;;;;;6272815;22;20085;-67
2023/05/09 04:03:59;;;;;;;21.05;13.40;;;14.70;99.90;;;;;;6270089;22;20019;-67
2023/05/09 04:06:25;;;;;;;23.13;13.85;;;14.70;99.90;;;;;;6273263;22;20110;-67
2023/05/09 04:08:51;;;;;;;22.80;14.68;;;14.70;99.90;;;;;;6272636;22;20421;-68
2023/05/09 04:11:16;;;;;;;19.98;14.18;;;14.70;99.90;;;;;;6272039;22;20101;-67
2023/05/09 04:13:42;;;;;;;20.60;14.23;;;14.70;99.90;;;;;;6244675;22;20023;-67
2023/05/09 04:16:08;;;;;;;18.85;13.52;;;14.70;99.90;;;;;;6272301;22;20113;-67
2023/05/09 04:18:34;;;;;;;21.13;13.82;;;14.70;99.90;;;;;;6272624;22;20024;-68
2023/05/09 04:21:00;;;;;;;24.15;14.98;;;14.70;99.90;;;;;;6271082;22;20022;-72
2023/05/09 04:23:25;;;;;;;21.98;14.13;;;14.70;99.90;;;;;;6271182;22;20089;-72
2023/05/09 04:25:53;;;;;;;19.42;13.35;;;14.70;99.90;;;;;;6272515;22;20050;-72
2023/05/09 04:28:19;;;;;;;19.92;14.23;;;14.70;99.90;;;;;;6272320;22;20070;-72
2023/05/09 04:30:44;;;;;;;19.50;14.43;;;14.70;99.90;;;;;;6244997;22;20024;-72
2023/05/09 04:33:10;;;;;;;21.85;13.85;;;14.70;99.90;;;;;;6272140;22;20578;-72
2023/05/09 04:35:37;;;;;;;20.45;14.85;;;14.70;99.90;;;;;;6272625;22;20011;-72
2023/05/09 04:38:03;;;;;;;19.73;14.15;;;14.70;99.90;;;;;;6244855;22;20367;-72
2023/05/09 04:40:29;;;;;;;21.80;14.77;;;14.70;99.90;;;;;;6245152;22;20066;-71
2023/05/09 04:42:56;;;;;;;24.15;14.50;;;14.80;99.90;;;;;;6244709;22;20027;-71
2023/05/09 04:45:22;;;;;;;24.38;14.23;;;14.70;99.90;;;;;;6244792;22;20024;-71
2023/05/09 04:47:48;;;;;;;24.30;15.05;;;14.70;99.90;;;;;;6272468;22;20023;-71
2023/05/09 04:50:13;;;;;;;20.95;14.10;;;14.70;99.90;;;;;;6272201;22;20023;-71
2023/05/09 04:52:39;;;;;;;21.77;14.85;;;14.70;99.90;;;;;;6271582;22;20016;-71
2023/05/09 04:55:05;;;;;;;21.42;14.55;;;14.60;99.90;;;;;;6272729;22;20030;-72
2023/05/09 04:57:31;;;;;;;22.20;14.60;;;14.70;99.90;;;;;;6272158;22;20102;-71
2023/05/09 04:59:57;;;;;;;22.00;15.10;;;14.70;99.90;;;;;;6272513;22;20573;-71
2023/05/09 05:02:24;;;;;;;22.85;14.80;;;14.70;99.90;;;;;;6271536;22;20083;-71
2023/05/09 05:04:50;;;;;;;22.23;15.02;;;14.70;99.90;;;;;;6245098;22;20015;-71
2023/05/09 05:07:15;;;;;;;21.77;14.85;;;14.80;99.90;;;;;;6272080;22;20055;-71
2023/05/09 05:09:41;;;;;;;22.90;14.85;;;14.80;99.90;;;;;;6272486;22;20022;-71
2023/05/09 05:12:07;;;;;;;23.88;15.68;;;14.80;99.90;;;;;;6272140;22;20023;-71
2023/05/09 05:14:33;;;;;;;23.05;16.00;;;14.80;99.90;;;;;;6272441;22;20047;-71
2023/05/09 05:17:00;;;;;;;21.42;15.18;;;14.80;99.90;;;;;;6244504;22;20029;-68
2023/05/09 05:19:25;;;;;;;20.60;14.10;;;14.80;99.90;;;;;;6272096;22;20023;-68
2023/05/09 05:21:51;;;;;;;21.33;14.25;;;14.70;99.90;;;;;;6270134;22;20046;-68
2023/05/09 05:24:17;;;;;;;20.48;14.35;;;14.70;99.90;;;;;;6243542;22;20117;-69
2023/05/09 05:26:43;;;;;;;22.38;14.98;;;14.70;99.90;;;;;;6271049;22;20023;-68
2023/05/09 05:29:08;;;;;;;23.75;15.45;;;14.80;99.90;;;;;;6270994;22;20011;-68
2023/05/09 05:31:35;;;;;;;23.83;15.93;;;14.80;99.90;;;;;;6271280;22;20087;-68
2023/05/09 05:34:00;;;;;;;24.48;14.40;;;14.80;99.90;;;;;;6271413;22;20077;-68
2023/05/09 05:36:26;;;;;;;26.02;15.10;;;14.80;99.90;;;;;;6271599;22;20019;-68
2023/05/09 05:38:52;;;;;;;21.10;14.85;;;14.80;99.90;;;;;;6271743;22;20019;-68
2023/05/09 05:41:17;;;;;;;26.60;15.60;;;14.80;99.90;;;;;;6243738;22;20024;-68
2023/05/09 05:43:43;;;;;;;25.83;15.35;;;14.80;99.90;;;;;;6243736;22;20034;-68
2023/05/09 05:46:09;;;;;;;27.33;16.10;;;14.80;99.90;;;;;;6271544;22;20020;-68
2023/05/09 05:48:35;;;;;;;23.58;15.48;;;14.80;99.90;;;;;;6271670;22;20102;-68
2023/05/09 05:51:00;;;;;;;24.33;16.55;;;14.80;99.90;;;;;;6271287;22;20023;-68
2023/05/09 05:53:26;;;;;;;26.48;16.60;;;14.80;99.90;;;;;;6271559;22;20082;-69
2023/05/09 05:55:52;;;;;;;21.67;15.50;;;14.90;99.90;;;;;;6243583;22;20020;-72
2023/05/09 05:58:17;;;;;;;24.33;16.50;;;14.90;99.90;;;;;;6270930;22;20019;-72
2023/05/09 06:00:43;;;;;;;25.38;17.13;;;14.90;99.90;;;;;;6271415;22;20020;-72
2023/05/09 06:03:12;;;;;;;25.85;16.13;;;14.90;99.90;;;;;;6244084;22;20012;-72
2023/05/09 06:05:42;;;;;;;24.67;16.50;;;14.90;99.90;;;;;;6273565;22;20062;-71
2023/05/09 06:08:08;;;;;;;26.23;16.23;;;14.90;99.90;;;;;;6275882;22;20023;-72
2023/05/09 06:10:33;;;;;;;26.42;17.35;;;14.90;99.90;;;;;;6248246;22;20034;-72
2023/05/09 06:12:59;;;;;;;24.38;16.40;;;15.00;99.90;;;;;;6276074;22;20015;-71
2023/05/09 06:15:25;;;;;;;26.80;18.17;;;15.00;99.90;;;;;;6276778;22;20034;-72
2023/05/09 06:17:50;;;;;;;29.90;17.55;;;15.00;99.90;;;;;;6275853;22;20138;-72
2023/05/09 06:20:16;;;;;;;26.13;17.60;;;15.00;99.90;;;;;;6274749;22;20019;-72
2023/05/09 06:22:42;;;;;;;25.95;17.30;;;15.00;99.90;;;;;;6276376;22;20016;-72
2023/05/09 06:25:08;;;;;;;26.67;16.73;;;15.00;99.90;;;;;;6273981;22;20024;-72
2023/05/09 06:27:33;;;;;;;24.08;16.67;;;15.00;99.90;;;;;;6249181;22;20023;-72
2023/05/09 06:29:59;;;;;;;28.00;18.13;;;15.10;99.90;;;;;;6278357;22;20019;-70
2023/05/09 06:32:25;;;;;;;28.27;18.27;;;15.10;99.90;;;;;;6276628;22;20132;-67
2023/05/09 06:34:51;;;;;;;29.77;18.83;;;15.10;99.90;;;;;;6246741;22;20027;-67
2023/05/09 06:37:17;;;;;;;27.50;18.38;;;15.10;99.90;;;;;;6274258;22;20019;-67
2023/05/09 06:39:43;;;;;;;28.40;17.38;;;15.20;99.90;;;;;;6246471;22;20039;-67
2023/05/09 06:42:09;;;;;;;27.88;17.77;;;15.20;99.90;;;;;;6274242;22;20384;-68
2023/05/09 06:44:34;;;;;;;31.60;18.02;;;15.20;99.90;;;;;;6246795;22;20020;-68
2023/05/09 06:47:00;;;;;;;28.90;19.10;;;15.20;99.90;;;;;;6273863;22;20313;-67
2023/05/09 06:49:26;;;;;;;31.55;18.58;;;15.20;99.90;;;;;;6246339;22;20115;-67
2023/05/09 06:51:52;;;;;;;30.73;19.40;;;15.20;99.90;;;;;;6246031;22;20641;-68
2023/05/09 06:54:17;;;;;;;32.53;18.48;;;15.20;99.90;;;;;;6273537;22;20019;-68
2023/05/09 06:56:43;;;;;;;35.00;19.65;;;15.30;99.90;;;;;;6271744;22;20011;-67
2023/05/09 06:59:12;;;;;;;33.60;19.52;;;15.30;99.90;;;;;;6273679;22;20344;-67
2023/05/09 07:01:39;;;;;;;35.13;20.27;;;15.30;99.90;;;;;;6273426;22;20015;-66
2023/05/09 07:04:04;;;;;;;40.10;20.85;;;15.40;99.90;;;;;;6245629;22;20576;-66
2023/05/09 07:06:30;;;;;;;42.17;21.20;;;15.40;99.90;;;;;;6273127;22;20042;-66
2023/05/09 07:08:56;;;;;;;39.25;21.65;;;15.30;99.90;;;;;;6272476;22;20027;-66
2023/05/09 07:11:22;;;;;;;46.03;22.73;;;15.40;99.90;;;;;;6273179;22;20016;-64
2023/05/09 07:13:47;;;;;;;39.70;20.58;;;15.40;99.90;;;;;;6272639;22;20023;-66
2023/05/09 07:16:13;;;;;;;41.25;22.20;;;15.40;99.90;;;;;;6272997;22;20034;-68
2023/05/09 07:18:39;;;;;;;43.42;21.65;;;15.40;99.90;;;;;;6292357;22;20734;-69
2023/05/09 07:21:05;;;;;;;21.95;12.75;;;15.60;99.90;;;;;;6244832;22;20028;-69
2023/05/09 07:23:30;;;;;;;37.30;20.55;;;15.50;99.90;;;;;;6272388;22;20019;-70
2023/05/09 07:25:57;;;;;;;44.80;22.10;;;15.60;99.90;;;;;;6273299;22;20308;-69
2023/05/09 07:28:23;;;;;;;48.22;22.88;;;15.60;99.90;;;;;;6272636;22;20014;-70
2023/05/09 07:30:49;;;;;;;46.45;23.42;;;15.60;99.90;;;;;;6272777;22;20015;-70
2023/05/09 07:33:15;;;;;;;46.28;22.67;;;15.60;99.90;;;;;;6245372;22;20111;-70
2023/05/09 07:35:40;;;;;;;45.85;24.48;;;15.60;99.90;;;;;;6272865;22;20017;-73
2023/05/09 07:38:06;;;;;;;40.60;22.60;;;15.70;99.90;;;;;;6245145;22;20023;-73
2023/05/09 07:40:37;;;;;;;42.63;22.63;;;15.70;99.90;;;;;;6272303;22;20030;-72
2023/05/09 07:43:03;;;;;;;47.50;23.00;;;15.60;99.90;;;;;;6272749;22;20030;-73
2023/05/09 07:45:29;;;;;;;45.17;23.02;;;15.70;99.90;;;;;;6245300;22;20019;-71
2023/05/09 07:47:54;;;;;;;44.55;23.52;;;15.70;99.90;;;;;;6271935;22;20574;-72
2023/05/09 07:50:22;;;;;;;37.45;19.02;;;15.70;99.90;;;;;;6244958;22;20098;-67
2023/05/09 07:52:48;;;;;;;42.67;23.38;;;15.90;99.90;;;;;;6243643;22;20031;-68
2023/05/09 07:55:13;;;;;;;44.38;22.40;;;15.80;99.90;;;;;;6271385;22;20012;-67
2023/05/09 07:57:39;;;;;;;45.72;22.40;;;15.80;99.90;;;;;;6271553;22;20011;-68
2023/05/09 08:00:06;;;;;;;45.75;23.40;;;15.80;99.90;;;;;;6244321;22;20030;-68
2023/05/09 08:02:32;;;;;;;49.88;24.88;;;15.80;99.90;;;;;;6271835;22;20019;-68
2023/05/09 08:04:58;;;;;;;47.83;22.85;;;15.80;99.90;;;;;;6271654;22;20447;-68
2023/05/09 08:07:23;;;;;;;50.80;25.50;;;15.90;99.90;;;;;;6272148;22;20340;-68
2023/05/09 08:09:49;;;;;;;45.35;23.80;;;15.90;99.90;;;;;;6272095;22;20073;-68
2023/05/09 08:12:15;;;;;;;48.15;23.20;;;15.90;99.90;;;;;;6271533;22;20108;-68
2023/05/09 08:14:40;;;;;;;43.38;24.27;;;15.90;99.90;;;;;;6244883;22;20099;-68
2023/05/09 08:17:06;;;;;;;45.20;22.45;;;16.00;99.90;;;;;;6272027;22;20032;-68
2023/05/09 08:19:32;;;;;;;49.05;23.27;;;16.00;99.90;;;;;;6272626;22;20027;-69
2023/05/09 08:21:57;;;;;;;45.72;24.63;;;16.00;99.90;;;;;;6272393;22;20054;-68
2023/05/09 08:24:23;;;;;;;43.60;24.20;;;16.00;99.90;;;;;;6272072;22;20149;-68
2023/05/09 08:26:48;;;;;;;49.05;24.42;;;16.00;99.90;;;;;;6272173;22;20019;-68
2023/05/09 08:29:15;;;;;;;46.78;23.55;;;16.00;99.90;;;;;;6272385;22;20109;-68
2023/05/09 08:31:40;;;;;;;50.03;23.52;;;16.00;99.90;;;;;;6271270;22;20026;-68
2023/05/09 08:34:06;;;;;;;49.22;23.40;;;16.00;99.90;;;;;;6271559;22;20016;-68
2023/05/09 08:36:32;;;;;;;48.95;23.45;;;16.10;99.90;;;;;;6271349;22;20486;-67
2023/05/09 08:38:58;;;;;;;48.95;23.58;;;16.10;99.90;;;;;;6271396;22;20065;-67
2023/05/09 08:41:26;;;;;;;40.13;22.83;;;16.10;99.90;;;;;;6270943;22;20015;-68
2023/05/09 08:43:53;;;;;;;46.47;22.75;;;16.20;99.90;;;;;;6271181;22;20042;-67
2023/05/09 08:46:27;;;;;;;44.63;21.98;;;16.20;99.90;;;;;;6271655;22;20046;-67
2023/05/09 08:48:54;;;;;;;43.42;22.15;;;16.20;99.90;;;;;;6271465;22;20086;-68
2023/05/09 08:51:20;;;;;;;42.80;23.02;;;16.20;99.90;;;;;;6271432;22;20022;-67
2023/05/09 08:53:46;;;;;;;40.42;23.25;;;16.20;99.90;;;;;;6271711;22;20028;-67
2023/05/09 08:56:12;;;;;;;41.67;21.52;;;16.30;99.90;;;;;;6272477;22;20106;-67
2023/05/09 08:58:39;;;;;;;45.80;23.23;;;16.30;99.90;;;;;;6272476;22;20486;-67
2023/05/09 09:01:05;;;;;;;42.42;21.98;;;16.30;99.90;;;;;;6272226;22;20018;-67
2023/05/09 09:03:32;;;;;;;46.63;23.15;;;16.40;99.90;;;;;;6272186;22;20035;-68
2023/05/09 09:05:58;;;;;;;37.13;20.55;;;16.40;99.90;;;;;;6271794;22;20455;-67
2023/05/09 09:08:26;;;;;;;40.78;21.33;;;16.50;99.90;;;;;;6272216;22;20027;-67
2023/05/09 09:10:52;;;;;;;39.67;21.73;;;16.60;99.90;;;;;;6270685;22;20329;-67
2023/05/09 09:13:20;;;;;;;42.30;23.35;;;16.70;99.90;;;;;;6244393;22;20388;-68
2023/05/09 09:15:47;;;;;;;45.35;22.95;;;16.80;99.90;;;;;;6271822;22;20024;-67
2023/05/09 09:18:22;;;;;;;42.10;21.80;;;16.90;99.90;;;;;;6271132;22;20023;-67
2023/05/09 09:20:55;;;;;;;40.33;21.25;;;16.90;99.90;;;;;;6271657;22;20086;-67
2023/05/09 09:23:24;;;;;;;38.72;21.42;;;16.90;99.90;;;;;;6271466;22;20028;-67
2023/05/09 09:26:00;;;;;;;39.03;21.35;;;16.90;99.90;;;;;;6268989;22;20047;-67
2023/05/09 09:28:27;;;;;;;40.90;21.85;;;16.90;99.90;;;;;;6271581;22;20024;-68
2023/05/09 09:30:53;;;;;;;40.15;21.25;;;16.90;99.90;;;;;;6271302;22;20023;-67
2023/05/09 09:33:20;;;;;;;34.58;19.80;;;16.90;99.90;;;;;;6270489;22;20016;-67
2023/05/09 09:35:48;;;;;;;39.10;21.50;;;16.90;99.90;;;;;;6270600;22;20463;-67
2023/05/09 09:38:13;;;;;;;40.53;21.42;;;17.00;99.90;;;;;;6271443;22;20023;-68
2023/05/09 09:40:39;;;;;;;37.33;19.73;;;17.00;99.90;;;;;;6271034;22;20451;-67
2023/05/09 09:43:08;;;;;;;44.13;20.92;;;17.00;99.90;;;;;;6271430;22;20738;-73
2023/05/09 09:45:35;;;;;;;36.78;19.58;;;17.10;99.90;;;;;;6271116;22;20043;-73
2023/05/09 09:48:06;;;;;;;38.17;20.83;;;17.10;99.90;;;;;;6243782;22;20316;-74
2023/05/09 09:50:31;;;;;;;43.35;21.10;;;17.20;99.90;;;;;;6244166;22;20058;-74
2023/05/09 12:33:21;;;;;;;19.65;11.15;;;19.30;99.90;;;;;;6280465;22;20046;-65
2023/05/09 12:35:59;;;;;;;16.77;11.32;;;19.40;99.90;;;;;;6302221;22;20027;-65
2023/05/09 12:38:25;;;;;;;23.30;13.48;;;19.40;99.90;;;;;;6302977;22;20027;-65
2023/05/09 12:41:05;;;;;;;24.70;13.13;;;19.40;99.90;;;;;;6301452;22;20402;-65
2023/05/09 12:43:33;;;;;;;19.50;12.32;;;19.50;99.90;;;;;;6302493;22;20034;-65
2023/05/09 12:46:00;;;;;;;25.35;14.73;;;19.50;99.90;;;;;;6302165;22;20019;-66
2023/05/09 12:48:26;;;;;;;37.63;20.65;;;19.50;99.90;;;;;;6302888;22;20042;-65
2023/05/09 12:50:52;;;;;;;39.92;21.65;;;19.40;99.90;;;;;;6274908;22;20451;-65
2023/05/09 12:53:26;;;;;;;35.08;19.92;;;19.40;99.90;;;;;;6302611;22;20065;-66
2023/05/09 12:56:00;;;;;;;39.45;21.05;;;19.40;99.90;;;;;;6302080;22;20015;-66
2023/05/09 12:58:29;;;;;;;42.97;23.88;;;19.30;99.90;;;;;;6300696;22;20084;-66
2023/05/09 13:00:55;;;;;;;45.60;24.48;;;19.30;99.90;;;;;;6302369;22;20625;-66
2023/05/09 13:03:30;;;;;;;63.30;31.25;;;19.20;99.90;;;;;;6302725;22;20066;-66
2023/05/09 13:06:00;;;;;;;49.17;26.13;;;19.20;99.90;;;;;;6301565;22;20050;-66
2023/05/09 13:08:27;;;;;;;31.85;17.52;;;19.30;99.90;;;;;;6274054;22;20030;-66
2023/05/09 13:10:53;;;;;;;21.83;12.27;;;19.20;99.90;;;;;;6302579;22;20023;-66
2023/05/09 13:13:21;;;;;;;19.10;10.65;;;19.30;99.90;;;;;;6302304;22;20026;-72
2023/05/09 13:15:47;;;;;;;17.75;11.35;;;19.30;99.90;;;;;;6275018;22;20031;-72
2023/05/09 13:18:13;;;;;;;17.02;11.48;;;19.20;99.90;;;;;;6274952;22;20153;-72
2023/05/09 13:20:39;;;;;;;18.17;11.93;;;19.20;99.90;;;;;;6301878;22;20442;-72
2023/05/09 13:23:05;;;;;;;22.15;11.68;;;19.20;99.90;;;;;;6302404;22;20093;-72
2023/05/09 13:25:30;;;;;;;18.65;12.95;;;19.20;99.90;;;;;;6302395;22;20051;-72
2023/05/09 13:27:56;;;;;;;19.80;13.30;;;19.20;99.90;;;;;;6302507;22;20026;-72
2023/05/09 13:30:22;;;;;;;19.73;13.38;;;19.30;99.90;;;;;;6275003;22;20110;-72
2023/05/09 13:32:47;;;;;;;20.13;14.70;;;19.30;99.90;;;;;;6302391;22;20022;-69
2023/05/09 13:35:15;;;;;;;20.60;13.88;;;19.30;99.90;;;;;;6271381;22;20038;-72
2023/05/09 13:37:40;;;;;;;21.00;13.20;;;19.40;99.90;;;;;;6272161;22;20022;-72
2023/05/09 13:40:07;;;;;;;24.58;15.55;;;19.30;99.90;;;;;;6273226;22;20348;-72
2023/05/09 13:42:33;;;;;;;24.45;14.77;;;19.30;99.90;;;;;;6220849;22;20031;-72
2023/05/09 13:44:59;;;;;;;22.17;15.05;;;19.30;99.90;;;;;;6246386;22;20317;-72
2023/05/09 13:47:25;;;;;;;22.02;15.10;;;19.30;99.90;;;;;;6273918;22;20026;-72
2023/05/09 13:49:51;;;;;;;19.83;14.35;;;19.30;99.90;;;;;;6273561;22;20774;-73
2023/05/09 13:52:17;;;;;;;27.85;15.77;;;19.20;99.90;;;;;;6275460;22;20022;-72
2023/05/09 13:54:43;;;;;;;24.65;15.05;;;19.20;99.90;;;;;;6272814;22;20020;-66
2023/05/09 13:57:09;;;;;;;19.27;14.90;;;19.10;99.90;;;;;;6273259;22;20091;-66
2023/05/09 13:59:35;;;;;;;22.55;15.30;;;19.10;99.90;;;;;;6273871;22;20027;-66
2023/05/09 14:02:01;;;;;;;22.15;15.05;;;19.00;99.90;;;;;;6273888;22;20012;-66
2023/05/09 14:04:28;;;;;;;21.25;15.27;;;19.00;99.90;;;;;;6273817;22;20051;-66
2023/05/09 14:06:58;;;;;;;21.05;14.10;;;19.10;99.90;;;;;;6273247;22;20486;-66
2023/05/09 14:09:25;;;;;;;21.13;15.15;;;19.00;99.90;;;;;;6272897;22;20019;-66
2023/05/09 14:11:52;;;;;;;18.73;14.63;;;19.00;99.90;;;;;;6272998;22;20754;-66
2023/05/09 14:14:19;;;;;;;19.95;14.52;;;18.90;99.90;;;;;;6272530;22;20023;-66
2023/05/09 14:16:44;;;;;;;18.92;15.30;;;18.90;99.90;;;;;;6273043;22;20248;-66
2023/05/09 14:19:11;;;;;;;22.75;15.07;;;18.90;99.90;;;;;;6272687;22;20011;-66
2023/05/09 14:21:37;;;;;;;20.33;15.77;;;18.80;99.90;;;;;;6272887;22;20019;-66
2023/05/09 14:24:03;;;;;;;24.70;15.65;;;18.80;99.90;;;;;;6245573;22;20050;-69
2023/05/09 14:26:29;;;;;;;20.35;16.25;;;18.80;99.90;;;;;;6272230;22;20012;-69
2023/05/09 14:28:55;;;;;;;21.63;15.88;;;18.70;99.90;;;;;;6246004;22;20370;-68
2023/05/09 14:31:21;;;;;;;21.98;15.65;;;18.60;99.90;;;;;;6273705;22;20445;-69
2023/05/09 14:33:46;;;;;;;20.95;16.10;;;18.60;99.90;;;;;;6273083;22;20016;-69
2023/05/09 14:36:12;;;;;;;22.88;15.38;;;18.50;99.90;;;;;;6273058;22;20034;-69
2023/05/09 14:38:39;;;;;;;18.48;14.55;;;18.50;99.90;;;;;;6272729;22;20094;-68
2023/05/09 14:41:06;;;;;;;21.15;15.80;;;18.50;99.90;;;;;;6272999;22;20030;-68
2023/05/09 14:43:31;;;;;;;21.73;15.82;;;18.50;99.90;;;;;;6272836;22;20022;-70
2023/05/09 14:45:58;;;;;;;20.83;15.27;;;18.50;99.90;;;;;;6273989;22;20391;-68
2023/05/09 14:48:23;;;;;;;20.05;14.63;;;18.40;99.90;;;;;;6273190;22;20012;-68
2023/05/09 14:50:52;;;;;;;17.35;13.77;;;18.40;99.90;;;;;;6273921;22;20018;-71
2023/05/09 14:53:18;;;;;;;18.85;13.55;;;18.40;99.90;;;;;;6248066;22;20023;-71
2023/05/09 14:55:44;;;;;;;17.10;13.52;;;18.40;99.90;;;;;;6272836;22;20020;-71
2023/05/09 14:58:12;;;;;;;15.85;13.18;;;18.40;99.90;;;;;;6247486;22;20096;-71
2023/05/09 15:00:37;;;;;;;18.10;13.80;;;18.30;99.90;;;;;;6275179;22;20133;-71
2023/05/09 15:03:03;;;;;;;23.05;13.90;;;18.30;99.90;;;;;;6241913;22;20047;-71
2023/05/09 15:05:29;;;;;;;15.07;12.18;;;18.30;99.90;;;;;;6274459;22;20015;-72
2023/05/09 15:07:55;;;;;;;16.05;12.20;;;18.20;99.90;;;;;;6273967;22;20113;-66